createdAt,value
2019-06-20T00:02:02.695Z,17.23
2019-06-20T00:04:34.630Z,17.33
2019-06-20T00:07:06.453Z,17.31
2019-06-20T00:09:38.376Z,17.29
2019-06-20T00:12:10.362Z,16.98
2019-06-20T00:14:43.318Z,17.12
2019-06-20T00:17:15.182Z,17.14
2019-06-20T00:19:47.776Z,16.78
2019-06-20T00:22:19.404Z,17.08
2019-06-20T00:24:50.983Z,17.13
2019-06-20T00:27:24.318Z,17.05
2019-06-20T00:29:56.971Z,16.88
2019-06-20T00:32:29.552Z,16.89
2019-06-20T00:35:01.028Z,17.02
2019-06-20T00:37:32.861Z,17.04
2019-06-20T00:40:04.711Z,16.92
2019-06-20T00:42:36.363Z,16.84
2019-06-20T00:45:09.238Z,16.67
2019-06-20T00:47:40.833Z,16.50
2019-06-20T00:50:12.980Z,16.40
2019-06-20T00:52:44.790Z,16.30
2019-06-20T00:55:16.638Z,16.20
2019-06-20T00:57:49.227Z,16.36
2019-06-20T01:00:22.218Z,16.39
2019-06-20T01:02:54.060Z,16.44
2019-06-20T01:05:25.935Z,16.44
2019-06-20T01:07:57.787Z,16.52
2019-06-20T01:10:29.419Z,16.54
2019-06-20T01:13:01.176Z,16.61
2019-06-20T01:15:33.199Z,16.64
2019-06-20T01:18:04.730Z,16.55
2019-06-20T01:20:36.359Z,16.61
2019-06-20T01:23:08.362Z,16.55
2019-06-20T01:25:42.490Z,16.48
2019-06-20T01:28:14.219Z,16.49
2019-06-20T01:30:45.907Z,16.51
2019-06-20T01:33:17.269Z,16.52
2019-06-20T01:35:49.498Z,16.55
2019-06-20T01:38:21.488Z,16.54
2019-06-20T01:40:53.320Z,16.58
2019-06-20T01:43:25.409Z,16.55
2019-06-20T01:45:56.932Z,16.59
2019-06-20T01:48:28.964Z,16.54
2019-06-20T01:51:00.634Z,16.47
2019-06-20T01:53:32.356Z,16.54
2019-06-20T01:56:03.976Z,16.54
2019-06-20T01:58:35.700Z,16.54
2019-06-20T02:01:07.402Z,16.54
2019-06-20T02:03:38.976Z,16.55
2019-06-20T02:06:10.844Z,16.31
2019-06-20T02:08:42.641Z,16.39
2019-06-20T02:11:14.274Z,16.12
2019-06-20T02:13:45.982Z,15.86
2019-06-20T02:16:17.779Z,15.70
2019-06-20T02:18:49.530Z,15.76
2019-06-20T02:21:21.487Z,15.64
2019-06-20T02:23:53.110Z,15.50
2019-06-20T02:26:24.893Z,15.48
2019-06-20T02:28:56.644Z,15.55
2019-06-20T02:31:28.263Z,15.68
2019-06-20T02:33:59.890Z,15.77
2019-06-20T02:36:31.427Z,15.77
2019-06-20T02:39:03.168Z,15.68
2019-06-20T02:41:36.672Z,15.77
2019-06-20T02:44:28.355Z,15.65
2019-06-20T02:46:42.085Z,15.67
2019-06-20T02:49:13.531Z,15.63
2019-06-20T02:51:45.228Z,15.60
2019-06-20T02:54:17.504Z,15.60
2019-06-20T02:56:49.545Z,15.77
2019-06-20T02:59:21.252Z,15.72
2019-06-20T03:01:53.175Z,15.86
2019-06-20T03:04:24.641Z,15.86
2019-06-20T03:06:56.405Z,15.92
2019-06-20T03:09:31.281Z,15.85
2019-06-20T03:12:02.898Z,15.77
2019-06-20T03:14:45.081Z,15.84
2019-06-20T03:17:06.403Z,15.89
2019-06-20T03:19:37.751Z,15.98
2019-06-20T03:22:09.424Z,16.03
2019-06-20T03:24:41.106Z,16.07
2019-06-20T03:27:13.013Z,15.80
2019-06-20T03:29:44.733Z,15.73
2019-06-20T03:32:16.403Z,15.78
2019-06-20T03:34:48.107Z,15.75
2019-06-20T03:37:19.682Z,15.75
2019-06-20T03:39:51.121Z,15.73
2019-06-20T03:42:22.756Z,15.66
2019-06-20T03:45:02.069Z,15.60
2019-06-20T03:47:28.093Z,15.51
2019-06-20T03:49:59.597Z,15.55
2019-06-20T03:52:31.186Z,15.58
2019-06-20T03:55:02.769Z,15.69
2019-06-20T03:57:34.359Z,15.82
2019-06-20T04:00:06.647Z,15.89
2019-06-20T04:02:38.537Z,16.07
2019-06-20T04:05:10.513Z,16.29
2019-06-20T04:07:42.375Z,16.52
2019-06-20T04:10:14.319Z,16.62
2019-06-20T04:12:47.070Z,16.64
2019-06-20T04:15:19.839Z,16.73
2019-06-20T04:17:51.456Z,16.80
2019-06-20T04:20:26.252Z,16.88
2019-06-20T04:22:58.803Z,16.84
2019-06-20T04:25:30.609Z,16.75
2019-06-20T04:28:02.165Z,16.76
2019-06-20T04:30:33.845Z,16.81
2019-06-20T04:33:05.641Z,16.88
2019-06-20T04:35:37.308Z,16.94
2019-06-20T04:38:08.919Z,17.05
2019-06-20T04:40:40.610Z,17.24
2019-06-20T04:43:12.062Z,17.35
2019-06-20T04:45:58.605Z,17.54
2019-06-20T04:48:30.216Z,17.81
2019-06-20T04:51:01.994Z,17.94
2019-06-20T04:53:33.387Z,18.13
2019-06-20T04:56:06.106Z,18.26
2019-06-20T04:58:38.011Z,18.40
2019-06-20T05:01:09.573Z,18.53
2019-06-20T05:03:41.433Z,18.67
2019-06-20T05:06:13.294Z,18.88
2019-06-20T05:08:44.922Z,19.04
2019-06-20T05:11:16.438Z,19.15
2019-06-20T05:13:48.224Z,19.34
2019-06-20T05:16:19.951Z,19.44
2019-06-20T05:18:51.801Z,19.61
2019-06-20T05:21:23.227Z,19.80
2019-06-20T05:23:55.233Z,19.82
2019-06-20T05:26:26.809Z,19.87
2019-06-20T05:28:58.533Z,19.95
2019-06-20T05:31:30.110Z,20.06
2019-06-20T05:34:01.833Z,20.14
2019-06-20T05:36:33.684Z,20.09
2019-06-20T05:39:06.668Z,20.17
2019-06-20T05:41:37.519Z,20.34
2019-06-20T05:44:09.195Z,20.48
2019-06-20T05:46:41.188Z,20.62
2019-06-20T05:49:12.545Z,20.74
2019-06-20T05:51:45.152Z,20.66
2019-06-20T05:54:16.972Z,20.97
2019-06-20T05:56:48.468Z,21.10
2019-06-20T05:59:20.150Z,21.21
2019-06-20T06:01:51.931Z,20.98
2019-06-20T06:04:23.532Z,21.33
2019-06-20T06:06:55.434Z,21.48
2019-06-20T06:09:27.228Z,21.15
2019-06-20T06:11:58.965Z,21.40
2019-06-20T06:14:31.567Z,21.71
2019-06-20T06:17:03.689Z,21.68
2019-06-20T06:19:35.601Z,21.90
2019-06-20T06:22:07.427Z,22.12
2019-06-20T06:24:39.188Z,22.32
2019-06-20T06:27:10.724Z,22.37
2019-06-20T06:29:42.551Z,22.61
2019-06-20T06:32:14.240Z,22.75
2019-06-20T06:34:46.111Z,22.95
2019-06-20T06:37:17.913Z,23.12
2019-06-20T06:39:49.655Z,23.37
2019-06-20T06:42:22.127Z,23.49
2019-06-20T06:44:53.812Z,23.59
2019-06-20T06:47:25.554Z,23.63
2019-06-20T06:49:57.215Z,23.72
2019-06-20T06:52:28.815Z,23.81
2019-06-20T06:55:01.447Z,24.03
2019-06-20T06:57:32.968Z,23.75
2019-06-20T07:00:06.599Z,24.02
2019-06-20T07:02:38.533Z,24.27
2019-06-20T07:05:10.905Z,24.16
2019-06-20T07:07:43.738Z,24.31
2019-06-20T07:10:15.511Z,24.48
2019-06-20T07:12:47.677Z,24.57
2019-06-20T07:15:19.834Z,24.71
2019-06-20T07:17:52.538Z,24.51
2019-06-20T07:20:24.810Z,24.81
2019-06-20T07:22:56.960Z,24.97
2019-06-20T07:25:28.534Z,24.92
2019-06-20T07:28:00.289Z,24.93
2019-06-20T07:30:32.239Z,25.02
2019-06-20T07:33:04.080Z,25.17
2019-06-20T07:35:35.728Z,25.34
2019-06-20T07:38:07.573Z,25.50
2019-06-20T07:40:39.042Z,25.55
2019-06-20T07:43:10.650Z,25.50
2019-06-20T07:45:42.333Z,25.65
2019-06-20T07:48:14.011Z,25.54
2019-06-20T07:50:45.456Z,25.49
2019-06-20T07:53:17.482Z,25.89
2019-06-20T07:55:49.474Z,25.73
2019-06-20T07:58:20.966Z,25.83
2019-06-20T08:00:53.115Z,25.78
2019-06-20T08:03:24.908Z,26.10
2019-06-20T08:05:56.898Z,26.25
2019-06-20T08:08:28.884Z,26.39
2019-06-20T08:11:00.406Z,26.33
2019-06-20T08:13:32.087Z,26.25
2019-06-20T08:16:04.162Z,26.28
2019-06-20T08:18:35.796Z,26.28
2019-06-20T08:21:07.402Z,26.70
2019-06-20T08:23:39.087Z,26.64
2019-06-20T08:26:10.947Z,26.65
2019-06-20T08:28:42.571Z,26.42
2019-06-20T08:31:14.309Z,26.58
2019-06-20T08:33:45.793Z,26.44
2019-06-20T08:36:17.203Z,26.89
2019-06-20T08:38:48.717Z,26.68
2019-06-20T08:41:20.349Z,26.93
2019-06-20T08:43:51.676Z,26.93
2019-06-20T08:46:23.412Z,27.33
2019-06-20T08:48:54.922Z,27.34
2019-06-20T08:51:26.782Z,27.55
2019-06-20T08:53:59.270Z,27.52
2019-06-20T08:56:31.214Z,27.62
2019-06-20T08:59:04.848Z,27.95
2019-06-20T09:01:36.718Z,27.95
2019-06-20T09:04:08.471Z,27.85
2019-06-20T09:06:43.062Z,28.03
2019-06-20T09:09:14.872Z,28.21
2019-06-20T09:11:46.548Z,28.21
2019-06-20T09:14:18.426Z,28.33
2019-06-20T09:16:50.068Z,28.37
2019-06-20T09:19:21.947Z,28.40
2019-06-20T09:21:54.188Z,28.35
2019-06-20T09:24:26.045Z,28.39
2019-06-20T09:26:57.845Z,28.56
2019-06-20T09:29:41.342Z,28.54
2019-06-20T09:32:04.596Z,28.76
2019-06-20T09:34:36.603Z,28.75
2019-06-20T09:37:08.482Z,28.52
2019-06-20T09:39:40.506Z,28.85
2019-06-20T09:42:12.506Z,29.17
2019-06-20T09:44:44.345Z,29.48
2019-06-20T09:47:16.189Z,29.41
2019-06-20T09:49:50.506Z,29.49
2019-06-20T09:52:21.703Z,29.65
2019-06-20T09:54:53.947Z,29.49
2019-06-20T09:57:25.730Z,29.72
2019-06-20T10:00:07.916Z,29.84
2019-06-20T10:02:30.827Z,29.89
2019-06-20T10:05:02.466Z,29.95
2019-06-20T10:07:34.469Z,29.69
2019-06-20T10:10:07.167Z,29.89
2019-06-20T10:12:38.888Z,29.95
2019-06-20T10:15:30.727Z,30.24
2019-06-20T10:18:02.715Z,29.86
2019-06-20T10:20:34.970Z,29.94
2019-06-20T10:23:06.645Z,30.23
2019-06-20T10:25:38.245Z,30.37
2019-06-20T10:28:10.200Z,30.30
2019-06-20T10:30:41.909Z,30.45
2019-06-20T10:33:13.665Z,30.66
2019-06-20T10:35:46.666Z,30.77
2019-06-20T10:38:19.344Z,31.00
2019-06-20T10:40:52.000Z,30.78
2019-06-20T10:43:23.908Z,30.97
2019-06-20T10:45:56.702Z,31.11
2019-06-20T10:48:28.415Z,30.69
2019-06-20T10:51:19.010Z,30.30
2019-06-20T10:53:51.545Z,30.52
2019-06-20T10:56:23.361Z,30.51
2019-06-20T10:58:54.999Z,30.41
2019-06-20T11:01:26.478Z,30.27
2019-06-20T11:03:58.051Z,30.48
2019-06-20T11:06:29.533Z,30.44
2019-06-20T11:09:01.209Z,30.26
2019-06-20T11:11:34.290Z,29.83
2019-06-20T11:14:06.268Z,29.78
2019-06-20T11:16:39.890Z,29.59
2019-06-20T11:19:12.227Z,28.53
2019-06-20T11:21:45.635Z,27.59
2019-06-20T11:24:17.546Z,27.39
2019-06-20T11:26:49.517Z,26.79
2019-06-20T11:29:21.703Z,26.58
2019-06-20T11:31:53.251Z,26.17
2019-06-20T11:34:25.111Z,25.85
2019-06-20T11:36:56.731Z,25.56
2019-06-20T11:39:28.548Z,25.77
2019-06-20T11:42:00.215Z,25.36
2019-06-20T11:44:31.822Z,25.21
2019-06-20T11:47:03.655Z,25.29
2019-06-20T11:49:36.408Z,25.17
2019-06-20T11:52:09.129Z,25.16
2019-06-20T11:54:42.446Z,25.07
2019-06-20T11:57:14.273Z,24.99
2019-06-20T11:59:45.815Z,25.03
2019-06-20T12:02:17.457Z,24.86
2019-06-20T12:04:49.280Z,24.84
2019-06-20T12:07:20.985Z,24.85
2019-06-20T12:09:52.693Z,24.87
2019-06-20T12:12:24.462Z,24.91
2019-06-20T12:14:56.051Z,24.94
2019-06-20T12:17:27.648Z,24.88
2019-06-20T12:20:00.363Z,24.92
2019-06-20T12:22:32.388Z,24.87
2019-06-20T12:25:04.354Z,24.90
2019-06-20T12:27:36.300Z,24.96
2019-06-20T12:30:08.844Z,24.94
2019-06-20T12:32:40.663Z,24.90
2019-06-20T12:35:13.517Z,24.75
2019-06-20T12:37:45.741Z,24.91
2019-06-20T12:40:19.478Z,24.96
2019-06-20T12:42:51.265Z,24.88
2019-06-20T12:45:22.834Z,24.95
2019-06-20T12:47:54.775Z,24.92
2019-06-20T12:50:26.488Z,24.84
2019-06-20T12:52:58.238Z,24.89
2019-06-20T12:55:29.904Z,24.85
2019-06-20T12:58:01.802Z,24.80
2019-06-20T13:00:33.712Z,24.85
2019-06-20T13:03:06.621Z,24.91
2019-06-20T13:05:38.432Z,24.64
2019-06-20T13:08:13.429Z,24.87
2019-06-20T13:10:44.233Z,25.00
2019-06-20T13:13:15.852Z,25.03
2019-06-20T13:15:48.892Z,25.04
2019-06-20T13:18:20.534Z,25.10
2019-06-20T13:20:52.062Z,25.12
2019-06-20T13:23:23.716Z,25.42
2019-06-20T13:25:55.259Z,25.73
2019-06-20T13:28:26.941Z,26.02
2019-06-20T13:30:58.804Z,25.89
2019-06-20T13:33:30.321Z,26.25
2019-06-20T13:36:02.215Z,26.72
2019-06-20T13:38:33.973Z,26.94
2019-06-20T13:41:05.531Z,27.15
2019-06-20T13:43:37.121Z,27.54
2019-06-20T13:46:08.828Z,27.63
2019-06-20T13:48:42.218Z,27.64
2019-06-20T13:51:14.093Z,27.50
2019-06-20T13:53:46.332Z,27.33
2019-06-20T13:56:18.124Z,26.86
2019-06-20T13:58:51.238Z,27.00
2019-06-20T14:01:22.719Z,26.74
2019-06-20T14:03:54.508Z,27.00
2019-06-20T14:06:26.571Z,28.00
2019-06-20T14:08:58.403Z,28.13
2019-06-20T14:11:30.041Z,28.45
2019-06-20T14:14:01.637Z,28.69
2019-06-20T14:16:33.570Z,28.37
2019-06-20T14:19:05.267Z,27.54
2019-06-20T14:21:36.776Z,27.21
2019-06-20T14:24:08.526Z,27.12
2019-06-20T14:26:43.314Z,26.57
2019-06-20T14:29:13.726Z,27.57
2019-06-20T14:31:49.152Z,28.80
2019-06-20T14:34:20.982Z,28.98
2019-06-20T14:36:54.010Z,28.83
2019-06-20T14:39:26.160Z,28.32
2019-06-20T14:41:57.720Z,28.32
2019-06-20T14:44:29.439Z,27.75
2019-06-20T14:47:01.032Z,27.53
2019-06-20T14:49:32.553Z,27.53
2019-06-20T14:52:04.757Z,27.43
2019-06-20T14:54:36.636Z,26.87
2019-06-20T14:57:08.296Z,26.77
2019-06-20T14:59:40.366Z,26.67
2019-06-20T15:02:12.073Z,26.77
2019-06-20T15:04:46.218Z,26.71
2019-06-20T15:07:18.029Z,26.43
2019-06-20T15:09:51.257Z,26.46
2019-06-20T15:12:22.972Z,26.46
2019-06-20T15:14:55.537Z,26.48
2019-06-20T15:17:27.282Z,26.39
2019-06-20T15:19:58.939Z,26.42
2019-06-20T15:22:30.559Z,26.23
2019-06-20T15:25:02.275Z,26.31
2019-06-20T15:27:33.764Z,26.24
2019-06-20T15:30:06.393Z,26.17
2019-06-20T15:32:50.584Z,26.33
2019-06-20T15:35:13.430Z,26.16
2019-06-20T15:37:46.664Z,26.12
2019-06-20T15:40:18.897Z,25.97
2019-06-20T15:42:51.539Z,25.85
2019-06-20T15:45:24.322Z,25.90
2019-06-20T15:47:56.154Z,25.86
2019-06-20T15:50:27.909Z,25.90
2019-06-20T15:52:59.750Z,25.83
2019-06-20T15:55:31.622Z,25.87
2019-06-20T15:58:03.456Z,25.64
2019-06-20T16:00:35.393Z,25.45
2019-06-20T16:03:10.277Z,25.34
2019-06-20T16:05:40.723Z,25.46
2019-06-20T16:08:12.457Z,25.37
2019-06-20T16:10:44.205Z,25.43
2019-06-20T16:13:15.945Z,25.05
2019-06-20T16:15:47.723Z,24.87
2019-06-20T16:18:19.423Z,24.82
2019-06-20T16:20:50.997Z,24.93
2019-06-20T16:23:22.791Z,24.95
2019-06-20T16:25:54.613Z,24.87
2019-06-20T16:28:26.540Z,24.69
2019-06-20T16:31:08.398Z,24.71
2019-06-20T16:33:32.269Z,24.65
2019-06-20T16:36:03.874Z,24.68
2019-06-20T16:38:35.881Z,24.50
2019-06-20T16:41:07.331Z,24.54
2019-06-20T16:43:38.788Z,24.48
2019-06-20T16:46:10.460Z,24.31
2019-06-20T16:48:42.062Z,24.22
2019-06-20T16:51:13.564Z,24.21
2019-06-20T16:53:45.436Z,24.16
2019-06-20T16:56:17.365Z,24.17
2019-06-20T16:58:49.056Z,24.09
2019-06-20T17:01:20.692Z,24.24
2019-06-20T17:03:53.642Z,24.20
2019-06-20T17:06:25.094Z,24.11
2019-06-20T17:08:56.759Z,24.11
2019-06-20T17:11:29.668Z,24.10
2019-06-20T17:14:01.552Z,23.64
2019-06-20T17:16:33.441Z,23.62
2019-06-20T17:19:05.248Z,23.50
2019-06-20T17:21:37.120Z,23.39
2019-06-20T17:24:08.926Z,23.30
2019-06-20T17:26:40.479Z,23.20
2019-06-20T17:29:12.150Z,23.22
2019-06-20T17:31:43.660Z,23.08
2019-06-20T17:34:16.877Z,23.09
2019-06-20T17:36:48.755Z,22.98
2019-06-20T17:39:20.417Z,22.90
2019-06-20T17:41:55.468Z,22.68
2019-06-20T17:44:27.430Z,22.63
2019-06-20T17:46:58.550Z,22.61
2019-06-20T17:49:30.171Z,22.61
2019-06-20T17:52:02.035Z,22.50
2019-06-20T17:54:33.741Z,22.54
2019-06-20T17:57:05.928Z,22.56
2019-06-20T17:59:37.498Z,22.56
2019-06-20T18:02:09.189Z,22.58
2019-06-20T18:04:40.921Z,22.52
2019-06-20T18:07:12.581Z,22.51
2019-06-20T18:09:58.663Z,22.46
2019-06-20T18:12:30.488Z,22.39
2019-06-20T18:15:02.059Z,22.29
2019-06-20T18:17:33.820Z,22.30
2019-06-20T18:20:06.057Z,22.12
2019-06-20T18:22:37.601Z,22.06
2019-06-20T18:25:10.713Z,22.05
2019-06-20T18:27:42.540Z,21.96
2019-06-20T18:30:14.117Z,21.82
2019-06-20T18:32:45.697Z,21.65
2019-06-20T18:35:17.783Z,21.72
2019-06-20T18:37:49.504Z,21.72
2019-06-20T18:40:21.569Z,21.74
2019-06-20T18:42:53.389Z,21.70
2019-06-20T18:45:25.466Z,21.59
2019-06-20T18:47:57.278Z,21.38
2019-06-20T18:50:28.850Z,21.21
2019-06-20T18:53:00.603Z,21.06
2019-06-20T18:55:32.263Z,21.05
2019-06-20T18:58:04.011Z,21.15
2019-06-20T19:00:36.136Z,21.14
2019-06-20T19:03:08.670Z,21.20
2019-06-20T19:05:40.710Z,21.18
2019-06-20T19:08:12.371Z,21.24
2019-06-20T19:10:44.524Z,21.11
2019-06-20T19:13:16.384Z,21.10
2019-06-20T19:15:48.188Z,20.98
2019-06-20T19:18:22.917Z,20.88
2019-06-20T19:20:53.346Z,20.63
2019-06-20T19:23:25.030Z,20.33
2019-06-20T19:25:57.038Z,20.17
2019-06-20T19:28:28.611Z,20.24
2019-06-20T19:31:01.487Z,20.31
2019-06-20T19:33:33.124Z,20.41
2019-06-20T19:36:04.781Z,20.33
2019-06-20T19:38:36.552Z,20.35
2019-06-20T19:41:08.087Z,20.18
2019-06-20T19:43:39.811Z,20.16
2019-06-20T19:46:11.862Z,20.02
2019-06-20T19:48:44.072Z,19.98
2019-06-20T19:51:16.065Z,19.87
2019-06-20T19:53:47.677Z,19.86
2019-06-20T19:56:19.318Z,19.94
2019-06-20T19:58:51.255Z,20.00
2019-06-20T20:01:22.951Z,19.97
2019-06-20T20:03:54.522Z,20.03
2019-06-20T20:06:26.090Z,19.87
2019-06-20T20:08:57.910Z,19.67
2019-06-20T20:11:29.482Z,19.50
2019-06-20T20:14:01.019Z,19.34
2019-06-20T20:16:32.994Z,19.16
2019-06-20T20:19:04.825Z,19.07
2019-06-20T20:21:36.509Z,19.08
2019-06-20T20:24:08.336Z,19.29
2019-06-20T20:26:39.988Z,19.22
2019-06-20T20:29:11.669Z,19.08
2019-06-20T20:31:44.421Z,18.99
2019-06-20T20:34:16.283Z,19.05
2019-06-20T20:36:48.044Z,18.86
2019-06-20T20:39:19.909Z,18.64
2019-06-20T20:41:51.657Z,18.43
2019-06-20T20:44:23.361Z,18.43
2019-06-20T20:46:55.153Z,18.50
2019-06-20T20:49:26.783Z,18.41
2019-06-20T20:51:58.474Z,18.22
2019-06-20T20:54:30.096Z,18.08
2019-06-20T20:57:01.619Z,17.96
2019-06-20T20:59:33.510Z,17.89
2019-06-20T21:02:05.279Z,17.80
2019-06-20T21:04:36.965Z,17.76
2019-06-20T21:07:09.821Z,17.66
2019-06-20T21:09:42.833Z,17.61
2019-06-20T21:12:14.671Z,17.50
2019-06-20T21:14:46.462Z,17.43
2019-06-20T21:17:17.983Z,17.38
2019-06-20T21:19:49.856Z,17.46
2019-06-20T21:22:22.698Z,17.37
2019-06-20T21:24:54.552Z,17.21
2019-06-20T21:27:26.380Z,17.20
2019-06-20T21:29:58.214Z,17.27
2019-06-20T21:32:29.894Z,17.25
2019-06-20T21:35:03.763Z,17.27
2019-06-20T21:37:36.770Z,17.26
2019-06-20T21:40:09.938Z,17.28
2019-06-20T21:42:40.347Z,17.28
2019-06-20T21:45:11.998Z,17.27
2019-06-20T21:47:43.603Z,17.30
2019-06-20T21:50:15.464Z,17.49
2019-06-20T21:52:48.333Z,17.63
2019-06-20T21:55:19.955Z,17.77
2019-06-20T21:57:52.064Z,17.71
2019-06-20T22:00:28.453Z,17.58
2019-06-20T22:03:01.738Z,17.54
2019-06-20T22:05:33.254Z,17.71
2019-06-20T22:08:05.229Z,17.82
2019-06-20T22:10:37.219Z,17.72
2019-06-20T22:13:08.826Z,17.58
2019-06-20T22:15:40.719Z,17.54
2019-06-20T22:18:12.281Z,17.45
2019-06-20T22:20:44.049Z,17.39
2019-06-20T22:23:15.534Z,17.26
2019-06-20T22:25:47.006Z,17.30
2019-06-20T22:28:18.861Z,17.25
2019-06-20T22:30:53.357Z,17.23
2019-06-20T22:33:25.184Z,17.21
2019-06-20T22:35:57.135Z,17.18
2019-06-20T22:38:28.954Z,17.32
2019-06-20T22:41:00.523Z,17.46
2019-06-20T22:43:32.155Z,17.53
2019-06-20T22:46:03.822Z,17.45
2019-06-20T22:48:35.215Z,17.35
2019-06-20T22:51:06.910Z,17.31
2019-06-20T22:53:38.844Z,17.19
2019-06-20T22:56:10.499Z,17.34
2019-06-20T22:58:41.826Z,17.47
2019-06-20T23:01:13.538Z,17.54
2019-06-20T23:03:45.174Z,17.35
2019-06-20T23:06:16.754Z,17.35
2019-06-20T23:08:48.329Z,17.51
2019-06-20T23:11:20.082Z,17.54
2019-06-20T23:13:51.694Z,17.62
2019-06-20T23:16:23.530Z,17.64
2019-06-20T23:18:55.228Z,17.62
2019-06-20T23:21:26.912Z,17.72
2019-06-20T23:23:58.573Z,17.56
2019-06-20T23:26:30.038Z,17.57
2019-06-20T23:29:19.521Z,17.64
2019-06-20T23:31:51.275Z,17.52
2019-06-20T23:34:23.200Z,17.51
2019-06-20T23:36:54.676Z,17.49
2019-06-20T23:39:28.467Z,17.29
2019-06-20T23:41:59.275Z,17.16
2019-06-20T23:44:31.103Z,17.15
2019-06-20T23:47:02.894Z,17.18
2019-06-20T23:49:34.517Z,17.25
2019-06-20T23:52:11.409Z,17.27
2019-06-20T23:54:45.971Z,17.28
2019-06-20T23:57:17.352Z,17.26
2019-06-20T23:59:48.864Z,17.26
